Time;durP1;ratioP1;P1;durP2;ratioP2;P2;SDS_P1;SDS_P2;PMS_P1;PMS_P2;Temp;Humidity;BMP_temperature;BMP_pressure;BME280_temperature;BME280_humidity;BME280_pressure;Samples;Min_cycle;Max_cycle;Signal;HPM_P1;HPM_P2
2022/08/11 00:00:13;;;;;;;18.00;6.30;;;13.40;99.90;;;;;;5012279;28;20331;-69
2022/08/11 00:02:48;;;;;;;13.33;5.53;;;13.40;99.90;;;;;;5012153;28;20181;-70
2022/08/11 00:05:19;;;;;;;17.90;5.77;;;13.50;99.90;;;;;;5012200;28;20213;-70
2022/08/11 00:07:54;;;;;;;8.87;4.83;;;13.60;99.90;;;;;;5011917;28;20206;-70
2022/08/11 00:10:24;;;;;;;14.23;4.50;;;13.70;99.90;;;;;;5003810;28;20203;-69
2022/08/11 00:13:05;;;;;;;9.33;4.57;;;13.80;99.90;;;;;;4992418;28;20265;-69
2022/08/11 00:15:44;;;;;;;7.80;4.43;;;13.80;99.90;;;;;;4992621;28;20181;-70
2022/08/11 00:18:13;;;;;;;9.57;3.90;;;13.90;99.90;;;;;;4992202;28;20182;-69
2022/08/11 00:20:44;;;;;;;12.13;3.53;;;14.10;99.90;;;;;;4992304;28;20179;-69
2022/08/11 00:23:16;;;;;;;10.47;3.50;;;14.20;99.90;;;;;;4992194;28;20547;-70
2022/08/11 00:25:50;;;;;;;7.47;3.27;;;14.30;99.90;;;;;;4992296;28;20170;-69
2022/08/11 00:28:32;;;;;;;14.40;3.50;;;14.30;99.90;;;;;;4991863;28;20221;-69
2022/08/11 00:31:06;;;;;;;6.60;2.73;;;14.30;99.90;;;;;;4992178;28;20197;-69
2022/08/11 00:33:42;;;;;;;9.37;3.27;;;14.40;99.90;;;;;;4991770;28;20180;-68
2022/08/11 00:36:14;;;;;;;5.97;2.60;;;14.50;99.90;;;;;;4963766;28;20205;-69
2022/08/11 00:38:44;;;;;;;8.10;2.57;;;14.60;99.90;;;;;;4991682;28;20175;-69
2022/08/11 00:41:28;;;;;;;7.83;2.67;;;14.80;99.90;;;;;;4992081;28;20237;-69
2022/08/11 00:44:28;;;;;;;8.37;2.80;;;14.90;99.90;;;;;;4994264;28;20205;-69
2022/08/11 00:47:10;;;;;;;6.93;2.53;;;14.80;99.90;;;;;;4998471;28;20661;-70
2022/08/11 00:49:49;;;;;;;9.77;2.53;;;14.70;99.90;;;;;;4998546;28;20192;-70
2022/08/11 00:52:53;;;;;;;8.13;2.60;;;14.70;99.90;;;;;;4997100;28;20179;-69
2022/08/11 00:55:44;;;;;;;8.00;3.27;;;14.70;99.90;;;;;;4998593;28;20179;-69
2022/08/11 00:58:48;;;;;;;8.57;2.10;;;14.60;99.90;;;;;;4998484;28;20205;-69
2022/08/11 01:01:41;;;;;;;6.57;2.47;;;14.60;99.90;;;;;;5016177;28;20188;-70
2022/08/11 01:04:16;;;;;;;7.97;2.83;;;14.70;99.90;;;;;;4989840;28;20187;-71
2022/08/11 01:07:25;;;;;;;6.07;2.00;;;14.70;99.90;;;;;;5000390;28;20214;-70
2022/08/11 01:09:53;;;;;;;11.33;3.43;;;14.70;99.90;;;;;;5013770;28;20286;-69
2022/08/11 01:12:41;;;;;;;6.07;2.47;;;14.80;99.90;;;;;;4998173;28;20695;-69
2022/08/11 01:15:34;;;;;;;8.57;2.37;;;14.80;99.90;;;;;;4998245;28;20305;-70
2022/08/11 01:18:38;;;;;;;6.27;2.30;;;14.80;99.90;;;;;;4998436;28;20197;-71
2022/08/11 01:21:40;;;;;;;8.87;2.50;;;14.80;99.90;;;;;;4997043;28;20184;-69
2022/08/11 01:24:10;;;;;;;8.07;2.40;;;14.80;99.90;;;;;;5012569;28;20196;-69
2022/08/11 01:26:59;;;;;;;7.23;1.87;;;14.80;99.90;;;;;;4996136;28;20294;-72
2022/08/11 01:30:01;;;;;;;6.63;1.60;;;14.80;99.90;;;;;;4987194;28;20227;-70
2022/08/11 01:32:47;;;;;;;5.27;1.67;;;14.90;99.90;;;;;;4978818;28;20709;-71
2022/08/11 01:35:29;;;;;;;5.43;1.40;;;15.10;99.90;;;;;;4978759;28;20194;-72
2022/08/11 01:38:31;;;;;;;3.97;1.43;;;15.20;99.90;;;;;;4980452;28;20186;-71
2022/08/11 01:41:21;;;;;;;6.53;2.40;;;15.40;99.90;;;;;;4932001;28;20194;-70
2022/08/11 01:47:50;;;;;;;7.27;1.60;;;16.20;99.90;;;;;;4995441;28;20221;-70
2022/08/11 01:50:30;;;;;;;5.70;1.60;;;16.20;99.90;;;;;;4978445;28;20572;-70
2022/08/11 01:53:21;;;;;;;5.83;1.53;;;16.10;99.90;;;;;;4995108;28;20179;-70
2022/08/11 01:56:33;;;;;;;4.93;1.47;;;16.20;99.90;;;;;;4983727;28;20179;-70
2022/08/11 01:59:19;;;;;;;3.30;1.53;;;15.90;99.90;;;;;;4992796;28;20179;-70
2022/08/11 02:02:48;;;;;;;2.70;1.47;;;16.00;99.90;;;;;;4992338;28;20219;-71
2022/08/11 02:05:28;;;;;;;5.97;1.43;;;16.00;99.90;;;;;;4973882;28;20201;-71
2022/08/11 02:08:18;;;;;;;4.53;1.60;;;16.10;99.90;;;;;;4992717;28;20221;-71
2022/08/11 02:14:23;;;;;;;5.27;1.13;;;16.60;99.90;;;;;;4975838;28;20269;-72
2022/08/11 02:17:18;;;;;;;1.57;1.07;;;16.90;99.90;;;;;;4934717;29;20192;-71
2022/08/11 02:23:42;;;;;;;5.40;2.10;;;16.60;99.90;;;;;;4975378;28;20411;-72
2022/08/11 02:26:09;;;;;;;8.40;2.00;;;16.60;99.90;;;;;;4972859;28;20258;-71
2022/08/11 02:28:43;;;;;;;7.37;1.80;;;16.50;99.90;;;;;;4975221;28;20654;-71
2022/08/11 02:35:04;;;;;;;6.50;2.13;;;16.60;99.90;;;;;;4983786;28;20248;-71
2022/08/11 02:37:45;;;;;;;2.67;1.60;;;16.60;99.90;;;;;;4976720;28;20190;-71
2022/08/11 02:40:21;;;;;;;4.10;1.53;;;16.60;99.90;;;;;;4994051;28;20174;-70
2022/08/11 02:43:02;;;;;;;5.57;1.80;;;16.50;99.90;;;;;;4988224;28;20203;-70
2022/08/11 02:45:46;;;;;;;7.03;1.50;;;16.70;99.90;;;;;;4974550;28;20211;-70
2022/08/11 02:51:53;;;;;;;3.90;1.40;;;17.00;99.90;;;;;;4974425;28;20194;-69
2022/08/11 02:54:32;;;;;;;9.47;2.30;;;17.20;99.90;;;;;;4976088;28;20183;-69
2022/08/11 02:57:11;;;;;;;9.20;1.53;;;17.20;99.90;;;;;;4986468;28;20604;-70
2022/08/11 02:59:54;;;;;;;6.57;1.53;;;16.90;99.90;;;;;;4975480;28;20187;-71
2022/08/11 03:02:33;;;;;;;5.03;1.60;;;16.90;99.90;;;;;;4991224;28;20265;-70
2022/08/11 03:05:12;;;;;;;3.43;1.23;;;17.00;99.90;;;;;;4989063;28;20822;-70
2022/08/11 03:08:05;;;;;;;7.67;1.93;;;17.20;99.90;;;;;;4973795;28;20211;-71
2022/08/11 03:17:24;;;;;;;7.00;1.90;;;17.60;99.90;;;;;;4986771;28;20249;-70
2022/08/11 03:20:11;;;;;;;4.77;1.50;;;17.50;99.90;;;;;;4993434;28;20178;-70
2022/08/11 03:23:01;;;;;;;4.20;1.67;;;17.50;99.90;;;;;;4993390;28;20170;-71
2022/08/11 03:25:53;;;;;;;7.93;1.57;;;17.50;99.90;;;;;;4991123;28;20684;-69
2022/08/11 03:28:41;;;;;;;3.90;1.20;;;17.50;99.90;;;;;;4991212;28;20210;-72
2022/08/11 03:31:43;;;;;;;2.27;1.50;;;17.50;99.90;;;;;;4994597;28;20178;-71
2022/08/11 03:34:21;;;;;;;3.83;1.30;;;17.50;99.90;;;;;;4994632;28;20209;-69
2022/08/11 03:36:54;;;;;;;2.63;1.33;;;17.40;99.90;;;;;;4994543;28;20704;-73
2022/08/11 03:39:55;;;;;;;2.43;1.13;;;17.30;99.90;;;;;;4994409;28;20642;-71
2022/08/11 03:42:57;;;;;;;1.80;0.97;;;17.40;99.90;;;;;;4994540;28;20198;-69
2022/08/11 03:45:36;;;;;;;5.57;1.30;;;17.30;99.90;;;;;;4994480;28;20182;-72
2022/08/11 03:48:14;;;;;;;2.97;1.40;;;17.30;99.90;;;;;;4994052;28;20238;-72
2022/08/11 03:51:02;;;;;;;4.50;1.63;;;17.20;99.90;;;;;;4994164;28;20257;-71
2022/08/11 03:54:00;;;;;;;3.67;1.80;;;17.30;99.90;;;;;;4994579;28;20179;-71
2022/08/11 03:56:45;;;;;;;5.13;1.10;;;17.20;99.90;;;;;;4994812;28;20179;-73
2022/08/11 03:59:37;;;;;;;3.97;2.17;;;17.10;99.90;;;;;;4994022;28;20232;-69
2022/08/11 04:02:14;;;;;;;6.43;2.20;;;17.10;99.90;;;;;;4994160;28;20248;-73
2022/08/11 04:05:19;;;;;;;6.73;2.33;;;17.20;99.90;;;;;;4994243;28;20178;-70
2022/08/11 04:08:11;;;;;;;5.87;1.80;;;17.20;99.90;;;;;;4993976;28;20198;-69
2022/08/11 04:10:47;;;;;;;2.77;1.63;;;17.00;99.90;;;;;;4993832;28;20262;-69
2022/08/11 04:15:58;;;;;;;3.17;1.20;;;17.10;99.90;;;;;;4994010;28;20166;-72
2022/08/11 04:16:52;;;;;;;11.40;3.53;;;17.10;99.90;;;;;;4979151;28;20197;-70
2022/08/11 04:19:28;;;;;;;7.47;2.60;;;17.20;99.90;;;;;;4993123;28;20256;-73
2022/08/11 04:22:20;;;;;;;3.10;1.33;;;17.20;99.90;;;;;;4993775;28;20268;-70
2022/08/11 04:24:54;;;;;;;11.03;1.67;;;17.00;99.90;;;;;;4993772;28;20187;-70
2022/08/11 04:27:51;;;;;;;5.13;1.00;;;16.90;99.90;;;;;;4999052;28;20183;-70
2022/08/11 04:30:37;;;;;;;7.10;3.73;;;16.70;99.90;;;;;;4998581;28;20674;-70
2022/08/11 04:33:41;;;;;;;6.73;1.83;;;16.60;99.90;;;;;;4976799;28;20182;-75
2022/08/11 04:37:31;;;;;;;7.37;2.23;;;16.60;99.90;;;;;;4993810;28;20171;-70
2022/08/11 04:39:38;;;;;;;3.67;1.43;;;16.70;99.90;;;;;;4974113;28;20198;-70
2022/08/11 04:46:25;;;;;;;4.33;1.67;;;16.50;99.90;;;;;;4974399;28;20705;-70
2022/08/11 05:02:17;;;;;;;2.20;1.50;;;16.10;99.90;;;;;;4973991;28;20218;-74
2022/08/11 05:05:29;;;;;;;4.90;1.70;;;16.00;99.90;;;;;;4974415;28;20637;-69
2022/08/11 05:08:19;;;;;;;6.30;2.00;;;16.10;99.90;;;;;;4974152;28;20211;-75
2022/08/11 05:11:04;;;;;;;3.23;1.40;;;16.20;99.90;;;;;;4974099;28;20190;-71
2022/08/11 05:34:53;;;;;;;5.67;1.40;;;16.30;99.90;;;;;;4997357;28;20192;-71
2022/08/11 05:37:33;;;;;;;3.57;1.70;;;16.10;99.90;;;;;;4996938;28;20201;-70
2022/08/11 05:57:29;;;;;;;3.60;1.43;;;16.10;99.90;;;;;;4996404;28;20186;-72
2022/08/11 06:00:09;;;;;;;7.23;1.70;;;16.20;99.90;;;;;;4996475;28;20174;-70
2022/08/11 06:03:09;;;;;;;6.20;1.97;;;16.20;99.90;;;;;;4996089;28;20220;-70
2022/08/11 06:05:43;;;;;;;11.20;2.30;;;16.20;99.90;;;;;;4989159;28;20207;-69
2022/08/11 06:08:13;;;;;;;6.00;3.20;;;16.20;99.90;;;;;;4996195;28;20198;-71
2022/08/11 06:10:46;;;;;;;6.80;3.53;;;16.20;99.90;;;;;;4995759;28;20219;-71
2022/08/11 06:13:17;;;;;;;6.43;2.43;;;16.20;99.90;;;;;;4996044;28;20536;-70
2022/08/11 06:15:51;;;;;;;3.43;2.10;;;16.10;99.90;;;;;;4993512;28;20175;-71
2022/08/11 06:18:20;;;;;;;5.83;2.50;;;16.20;99.90;;;;;;4994288;28;20586;-71
2022/08/11 06:20:56;;;;;;;5.30;2.20;;;16.20;99.90;;;;;;4994379;28;20665;-71
2022/08/11 06:23:31;;;;;;;7.73;2.53;;;16.30;99.90;;;;;;4994790;28;20265;-69
2022/08/11 06:26:00;;;;;;;5.60;2.40;;;16.10;99.90;;;;;;4977331;28;20198;-70
2022/08/11 06:28:33;;;;;;;6.77;3.40;;;16.00;99.90;;;;;;4994049;28;20214;-71
2022/08/11 06:31:02;;;;;;;4.90;2.03;;;15.90;99.90;;;;;;4994638;28;20186;-71
2022/08/11 06:34:00;;;;;;;5.93;2.40;;;15.90;99.90;;;;;;4993233;28;20244;-71
2022/08/11 06:37:03;;;;;;;4.20;2.27;;;15.90;99.90;;;;;;4992916;28;20204;-73
2022/08/11 06:40:00;;;;;;;3.90;2.27;;;15.80;99.90;;;;;;4994722;28;20177;-70
2022/08/11 06:43:10;;;;;;;8.17;2.47;;;15.80;99.90;;;;;;4993932;28;20209;-69
2022/08/11 06:45:56;;;;;;;11.13;4.63;;;15.70;99.90;;;;;;4993371;28;20551;-70
2022/08/11 06:48:25;;;;;;;6.27;2.90;;;15.70;99.90;;;;;;4994386;28;20242;-70
2022/08/11 06:51:12;;;;;;;5.03;2.37;;;15.60;99.90;;;;;;4994215;28;20190;-71
2022/08/11 06:53:58;;;;;;;6.37;2.40;;;15.60;99.90;;;;;;4994026;28;20197;-71
2022/08/11 07:02:23;;;;;;;4.97;2.33;;;15.40;99.90;;;;;;4994076;28;20214;-71
2022/08/11 07:04:59;;;;;;;5.23;2.40;;;15.40;99.90;;;;;;4994205;28;20183;-71
2022/08/11 07:16:29;;;;;;;7.77;2.60;;;15.40;99.90;;;;;;4994082;28;20193;-70
2022/08/11 07:30:38;;;;;;;4.53;2.50;;;15.40;99.90;;;;;;4992409;28;20235;-69
2022/08/11 07:33:09;;;;;;;5.33;2.53;;;15.30;99.90;;;;;;4990368;28;20186;-73
2022/08/11 07:35:46;;;;;;;4.57;3.27;;;15.20;99.90;;;;;;4992724;28;20548;-71
2022/08/11 07:38:42;;;;;;;11.37;4.27;;;15.10;99.90;;;;;;4993039;28;20265;-71
2022/08/11 07:41:17;;;;;;;7.73;2.37;;;15.00;99.90;;;;;;4993413;28;20179;-71
2022/08/11 07:43:49;;;;;;;11.10;3.00;;;15.00;99.90;;;;;;4992798;28;20203;-72
2022/08/11 07:54:42;;;;;;;7.57;3.33;;;15.00;99.90;;;;;;4991889;28;20574;-72
2022/08/11 08:19:23;;;;;;;7.03;3.70;;;15.00;99.90;;;;;;4992839;28;20613;-70
2022/08/11 08:21:52;;;;;;;6.93;2.90;;;15.10;99.90;;;;;;4992307;28;20595;-69
2022/08/11 08:24:20;;;;;;;6.67;3.17;;;15.10;99.90;;;;;;4992843;28;20313;-70
2022/08/11 08:26:58;;;;;;;7.67;4.10;;;15.10;99.90;;;;;;4992677;28;20171;-71
2022/08/11 08:32:21;;;;;;;10.37;3.23;;;14.90;99.90;;;;;;4996184;28;20192;-71
2022/08/11 08:34:51;;;;;;;8.47;3.47;;;14.90;99.90;;;;;;4995395;28;20197;-73
2022/08/11 08:37:25;;;;;;;10.03;3.60;;;14.90;99.90;;;;;;4976147;28;20182;-74
2022/08/11 08:39:54;;;;;;;6.73;3.57;;;15.00;99.90;;;;;;4992687;28;20175;-73
2022/08/11 08:42:31;;;;;;;7.60;2.73;;;15.00;99.90;;;;;;4992944;28;20186;-71
2022/08/11 08:45:10;;;;;;;7.43;3.77;;;15.10;99.90;;;;;;4975297;28;20278;-71
2022/08/11 08:48:00;;;;;;;7.47;3.20;;;15.10;99.90;;;;;;4994293;28;20776;-72
2022/08/11 08:53:30;;;;;;;8.30;2.77;;;15.10;99.90;;;;;;4983682;28;20552;-70
2022/08/11 08:56:00;;;;;;;6.93;3.47;;;15.10;99.90;;;;;;4998469;28;20183;-70
2022/08/11 08:58:35;;;;;;;6.87;3.40;;;15.00;99.90;;;;;;4991979;28;20236;-70
2022/08/11 09:01:03;;;;;;;7.40;3.50;;;15.00;99.90;;;;;;4991953;28;20182;-73
2022/08/11 09:03:35;;;;;;;5.17;3.50;;;15.00;99.90;;;;;;4992115;28;20179;-71
2022/08/11 09:06:03;;;;;;;5.10;3.30;;;15.20;99.90;;;;;;4977075;28;20623;-70
2022/08/11 09:08:34;;;;;;;7.37;3.90;;;15.20;99.90;;;;;;4995856;28;20750;-71
2022/08/11 09:13:51;;;;;;;9.40;4.40;;;15.10;99.90;;;;;;4996164;28;20185;-72
2022/08/11 09:16:21;;;;;;;13.17;4.13;;;15.10;99.90;;;;;;4996582;28;20179;-71
2022/08/11 09:18:53;;;;;;;10.13;3.60;;;15.10;99.90;;;;;;4995951;28;20196;-72
2022/08/11 09:21:23;;;;;;;7.73;3.30;;;15.20;99.90;;;;;;4996667;28;20170;-70
2022/08/11 09:27:13;;;;;;;8.03;3.73;;;15.20;99.90;;;;;;4997415;28;20185;-70
2022/08/11 09:29:37;;;;;;;9.43;3.87;;;15.10;99.90;;;;;;4996845;28;20238;-70
2022/08/11 09:32:05;;;;;;;6.00;3.63;;;15.10;99.90;;;;;;4996582;28;20269;-70
2022/08/11 09:34:36;;;;;;;8.33;3.57;;;15.10;99.90;;;;;;4992414;28;20202;-71
2022/08/11 09:45:30;;;;;;;8.40;3.10;;;15.30;99.90;;;;;;4996078;28;20184;-71
2022/08/11 09:47:59;;;;;;;6.50;3.00;;;15.20;99.90;;;;;;5000946;28;20222;-70
2022/08/11 09:50:27;;;;;;;5.90;2.70;;;15.30;99.90;;;;;;4984391;28;20187;-72
2022/08/11 09:52:55;;;;;;;9.47;3.00;;;15.40;99.90;;;;;;4981257;28;20168;-75
2022/08/11 09:55:23;;;;;;;4.57;2.77;;;15.30;99.90;;;;;;4979374;28;20179;-73
2022/08/11 10:00:39;;;;;;;10.20;3.23;;;15.20;99.90;;;;;;4977322;28;20201;-70
2022/08/11 10:03:26;;;;;;;5.90;3.23;;;15.30;99.90;;;;;;4977224;28;20175;-72
2022/08/11 10:08:47;;;;;;;5.60;2.80;;;15.20;99.90;;;;;;4962433;28;20714;-72
2022/08/11 10:11:19;;;;;;;8.47;2.87;;;15.20;99.90;;;;;;4976799;28;20177;-73
2022/08/11 10:16:40;;;;;;;8.87;3.63;;;15.10;99.90;;;;;;4976257;28;20183;-73
2022/08/11 10:19:11;;;;;;;6.33;2.93;;;15.10;99.90;;;;;;4976636;28;20175;-73
2022/08/11 10:26:48;;;;;;;7.97;3.57;;;15.10;99.90;;;;;;4976962;28;20670;-74
2022/08/11 10:27:24;;;;;;;13.77;4.57;;;15.10;99.90;;;;;;4977138;28;20198;-72
2022/08/11 10:35:27;;;;;;;7.67;3.63;;;14.90;99.90;;;;;;4993995;28;20194;-70
2022/08/11 10:37:56;;;;;;;7.17;3.77;;;14.90;99.90;;;;;;4995803;28;20181;-74
2022/08/11 10:40:25;;;;;;;6.73;3.47;;;14.80;99.90;;;;;;4996112;28;20257;-72
2022/08/11 10:43:01;;;;;;;6.50;3.20;;;14.80;99.90;;;;;;4996067;28;20190;-72
2022/08/11 10:48:30;;;;;;;3.80;3.00;;;14.70;99.90;;;;;;4991302;28;20318;-70
2022/08/11 10:51:13;;;;;;;5.50;3.13;;;14.70;99.90;;;;;;4995142;28;20190;-71
2022/08/11 10:59:26;;;;;;;4.67;2.97;;;14.80;99.90;;;;;;4996212;28;20594;-72
2022/08/11 11:01:54;;;;;;;5.67;3.10;;;14.70;99.90;;;;;;4994834;28;20253;-71
2022/08/11 11:04:49;;;;;;;6.67;3.40;;;14.80;99.90;;;;;;4994870;28;20187;-73
2022/08/11 11:07:19;;;;;;;6.97;3.87;;;14.80;99.90;;;;;;4992908;28;20193;-71
2022/08/11 11:09:49;;;;;;;7.27;3.67;;;14.70;99.90;;;;;;4995317;28;20244;-71
2022/08/11 11:18:24;;;;;;;7.97;3.80;;;14.40;99.90;;;;;;4995437;28;20307;-70
2022/08/11 11:20:56;;;;;;;7.57;2.97;;;14.40;99.90;;;;;;4987163;28;20194;-75
2022/08/11 11:23:54;;;;;;;4.53;2.87;;;14.30;99.90;;;;;;4995155;28;20187;-72
2022/08/11 11:26:34;;;;;;;5.80;3.20;;;14.30;99.90;;;;;;4995276;28;20183;-71
2022/08/11 11:29:38;;;;;;;6.80;2.93;;;14.30;99.90;;;;;;4995094;28;20297;-72
2022/08/11 11:32:40;;;;;;;4.70;2.70;;;14.30;99.90;;;;;;4995054;28;20740;-71
2022/08/11 11:35:32;;;;;;;5.33;2.80;;;14.40;99.90;;;;;;4995324;28;20265;-72
2022/08/11 11:38:00;;;;;;;4.20;2.40;;;14.30;99.90;;;;;;4994774;28;20190;-72
2022/08/11 11:40:29;;;;;;;6.20;2.60;;;14.40;99.90;;;;;;4994760;28;20188;-70
2022/08/11 11:42:58;;;;;;;7.40;2.90;;;14.40;99.90;;;;;;4977343;28;20186;-72
2022/08/11 11:45:27;;;;;;;7.33;2.70;;;14.40;99.90;;;;;;4994845;28;20587;-70
2022/08/11 11:47:57;;;;;;;5.73;2.40;;;14.40;99.90;;;;;;4994180;28;20230;-71
2022/08/11 11:50:36;;;;;;;4.03;2.53;;;14.40;99.90;;;;;;4994404;28;20190;-70
2022/08/11 11:53:09;;;;;;;10.57;2.60;;;14.40;99.90;;;;;;4994623;28;20253;-72
2022/08/11 11:55:37;;;;;;;4.17;2.50;;;14.50;99.90;;;;;;4994490;28;20328;-71
2022/08/11 12:03:41;;;;;;;4.97;2.80;;;14.30;99.90;;;;;;4979896;28;20202;-71
2022/08/11 12:06:13;;;;;;;8.10;3.27;;;14.40;99.90;;;;;;4994068;28;20220;-72
2022/08/11 12:08:42;;;;;;;4.17;2.70;;;14.40;99.90;;;;;;4977143;28;20631;-73
2022/08/11 12:14:16;;;;;;;5.60;2.60;;;14.40;99.90;;;;;;4994655;28;20195;-72
2022/08/11 12:16:46;;;;;;;5.97;2.60;;;14.40;99.90;;;;;;4993948;28;20190;-71
2022/08/11 12:19:17;;;;;;;4.90;2.77;;;14.40;99.90;;;;;;4994348;28;20189;-70
2022/08/11 12:27:23;;;;;;;4.30;2.33;;;14.30;99.90;;;;;;4994688;28;20228;-72
2022/08/11 12:30:08;;;;;;;5.13;2.70;;;14.30;99.90;;;;;;4994276;28;20312;-71
2022/08/11 12:32:37;;;;;;;6.27;2.77;;;14.30;99.90;;;;;;4993137;28;20531;-73
2022/08/11 12:35:06;;;;;;;4.83;2.90;;;14.30;99.90;;;;;;4994594;28;20196;-72
2022/08/11 12:37:47;;;;;;;5.87;2.83;;;14.20;99.90;;;;;;4992299;28;20271;-73
2022/08/11 12:46:01;;;;;;;4.87;2.57;;;14.20;99.90;;;;;;4995174;28;20196;-71
2022/08/11 12:54:18;;;;;;;8.63;3.00;;;14.10;99.90;;;;;;5014010;28;20182;-71
2022/08/11 13:05:20;;;;;;;6.03;3.00;;;14.00;99.90;;;;;;4994091;28;20668;-72
2022/08/11 13:07:49;;;;;;;5.03;2.47;;;14.10;99.90;;;;;;4993500;28;20190;-72
2022/08/11 13:12:46;;;;;;;5.67;2.53;;;14.00;99.90;;;;;;4993375;28;20186;-69
2022/08/11 13:13:09;;;;;;;8.40;3.00;;;14.10;99.90;;;;;;4992470;28;20698;-72
2022/08/11 13:15:38;;;;;;;5.67;2.83;;;14.10;99.90;;;;;;4993574;28;20181;-70
2022/08/11 13:18:06;;;;;;;5.40;2.73;;;14.10;99.90;;;;;;4993488;28;20664;-70
2022/08/11 13:20:35;;;;;;;5.77;2.90;;;14.00;99.90;;;;;;4993325;28;20187;-70
2022/08/11 13:23:04;;;;;;;5.63;2.50;;;14.00;99.90;;;;;;4992882;28;20214;-72
2022/08/11 13:25:37;;;;;;;4.00;2.67;;;14.00;99.90;;;;;;4993370;28;20194;-73
2022/08/11 13:28:05;;;;;;;5.97;2.30;;;14.00;99.90;;;;;;4993401;28;20208;-71
2022/08/11 13:33:21;;;;;;;6.60;2.40;;;14.00;99.90;;;;;;4994095;28;20669;-73
2022/08/11 13:35:52;;;;;;;6.90;2.57;;;14.10;99.90;;;;;;4993280;28;20198;-71
2022/08/11 13:38:23;;;;;;;6.87;2.77;;;14.10;99.90;;;;;;4993352;28;20613;-70
2022/08/11 13:40:54;;;;;;;3.70;2.67;;;14.10;99.90;;;;;;4993537;28;20666;-73
2022/08/11 13:43:24;;;;;;;3.77;2.33;;;14.10;99.90;;;;;;4993381;28;20182;-71
2022/08/11 13:46:17;;;;;;;6.67;2.03;;;14.10;99.90;;;;;;4993488;28;20254;-73
2022/08/11 13:48:42;;;;;;;2.83;1.97;;;14.10;99.90;;;;;;4992585;28;20363;-73
2022/08/11 13:54:22;;;;;;;4.77;2.20;;;14.10;99.90;;;;;;4997062;28;20191;-73
2022/08/11 13:56:54;;;;;;;5.40;2.30;;;14.20;99.90;;;;;;4997393;28;20186;-73
2022/08/11 13:59:22;;;;;;;7.40;2.33;;;14.20;99.90;;;;;;4996568;28;20234;-73
2022/08/11 14:01:54;;;;;;;9.00;3.10;;;14.10;99.90;;;;;;4995790;28;20190;-72
2022/08/11 14:05:10;;;;;;;12.63;3.00;;;14.10;99.90;;;;;;4997207;28;20182;-72
2022/08/11 14:07:50;;;;;;;6.07;2.50;;;14.10;99.90;;;;;;4966215;28;20225;-73
2022/08/11 14:10:19;;;;;;;5.37;2.43;;;14.20;99.90;;;;;;4996505;28;20265;-72
2022/08/11 14:15:47;;;;;;;3.73;2.50;;;14.20;99.90;;;;;;4997139;28;20189;-69
2022/08/11 14:18:18;;;;;;;4.20;2.53;;;14.20;99.90;;;;;;4994854;28;20191;-70
2022/08/11 14:23:41;;;;;;;6.63;2.50;;;14.10;99.90;;;;;;4996766;28;20184;-71
2022/08/11 14:26:26;;;;;;;3.73;2.20;;;14.20;99.90;;;;;;4996424;28;20642;-71
2022/08/11 14:28:54;;;;;;;10.67;2.90;;;14.20;99.90;;;;;;4996347;28;20211;-72
2022/08/11 14:31:24;;;;;;;5.27;2.60;;;14.10;99.90;;;;;;4996376;28;20593;-71
2022/08/11 14:33:55;;;;;;;7.63;2.10;;;14.10;99.90;;;;;;4996115;28;20262;-72
2022/08/11 14:36:27;;;;;;;10.07;2.57;;;14.00;99.90;;;;;;4996091;28;20182;-71
2022/08/11 14:38:56;;;;;;;5.67;2.17;;;14.10;99.90;;;;;;4995970;28;20179;-72
2022/08/11 14:47:06;;;;;;;5.83;2.43;;;14.00;99.90;;;;;;4995521;28;20266;-69
2022/08/11 14:49:37;;;;;;;5.97;2.60;;;14.00;99.90;;;;;;4995622;28;20212;-72
2022/08/11 14:52:09;;;;;;;9.53;2.80;;;14.00;99.90;;;;;;4995602;28;20179;-73
2022/08/11 14:57:27;;;;;;;5.23;2.47;;;14.20;99.90;;;;;;4996070;28;20282;-73
2022/08/11 14:59:58;;;;;;;7.27;2.83;;;14.20;99.90;;;;;;4994756;28;20320;-72
2022/08/11 15:05:12;;;;;;;4.43;2.50;;;14.10;99.90;;;;;;4995785;28;20240;-72
2022/08/11 15:07:40;;;;;;;7.57;2.63;;;14.10;99.90;;;;;;5006513;28;20185;-71
2022/08/11 15:10:09;;;;;;;5.17;2.57;;;14.10;99.90;;;;;;5007393;28;20237;-70
2022/08/11 15:12:42;;;;;;;5.53;2.60;;;14.10;99.90;;;;;;4999956;28;20185;-70
2022/08/11 15:18:08;;;;;;;3.63;2.37;;;14.10;99.90;;;;;;4995017;28;20582;-73
2022/08/11 15:26:13;;;;;;;6.67;2.07;;;14.00;99.90;;;;;;4994996;28;20193;-71
2022/08/11 15:37:34;;;;;;;7.60;2.70;;;13.80;99.90;;;;;;4995170;28;20317;-73
2022/08/11 15:46:00;;;;;;;9.83;3.10;;;13.80;99.90;;;;;;4994564;28;20213;-70
2022/08/11 15:48:38;;;;;;;4.53;2.53;;;13.80;99.90;;;;;;4994407;28;20328;-72
2022/08/11 15:51:26;;;;;;;6.57;2.70;;;13.80;99.90;;;;;;4994368;28;20264;-72
2022/08/11 15:53:57;;;;;;;7.43;2.60;;;13.90;99.90;;;;;;4992889;28;20190;-72
2022/08/11 15:56:30;;;;;;;5.33;2.30;;;13.90;99.90;;;;;;4994577;28;20177;-74
2022/08/11 16:04:37;;;;;;;6.53;2.67;;;13.90;99.90;;;;;;4994711;28;20186;-72
2022/08/11 16:07:16;;;;;;;7.87;2.40;;;13.90;99.90;;;;;;4992697;28;20602;-72
2022/08/11 16:10:07;;;;;;;5.23;2.57;;;13.90;99.90;;;;;;4994560;28;20304;-71
2022/08/11 16:18:39;;;;;;;8.70;2.40;;;13.90;99.90;;;;;;4994192;28;20227;-72
2022/08/11 16:21:25;;;;;;;8.10;2.70;;;13.90;99.90;;;;;;4994185;28;20229;-72
2022/08/11 16:23:57;;;;;;;3.73;2.37;;;13.90;99.90;;;;;;4994605;28;20603;-72
2022/08/11 16:26:27;;;;;;;8.33;2.40;;;14.00;99.90;;;;;;4994278;28;20198;-72
2022/08/11 16:28:57;;;;;;;6.03;2.63;;;13.90;99.90;;;;;;4993785;28;20245;-69
2022/08/11 16:31:27;;;;;;;6.73;2.30;;;13.90;99.90;;;;;;4993823;28;20224;-72
2022/08/11 16:33:54;;;;;;;7.97;2.90;;;13.90;99.90;;;;;;4993854;28;20227;-72
2022/08/11 16:39:12;;;;;;;4.47;2.87;;;13.90;99.90;;;;;;4994094;28;20825;-70
2022/08/11 16:47:17;;;;;;;5.60;2.53;;;13.80;99.90;;;;;;4993695;28;20712;-71
2022/08/11 16:49:52;;;;;;;8.80;2.93;;;13.90;99.90;;;;;;4994423;28;20617;-71
2022/08/11 16:52:21;;;;;;;5.30;2.53;;;13.90;99.90;;;;;;4994035;28;20173;-71
2022/08/11 16:54:48;;;;;;;2.83;2.33;;;13.90;99.90;;;;;;4994421;28;20613;-72
2022/08/11 17:00:13;;;;;;;3.50;2.67;;;13.90;99.90;;;;;;5008628;28;20189;-69
2022/08/11 17:15:02;;;;;;;5.53;2.30;;;14.00;99.90;;;;;;4993517;28;20188;-71
2022/08/11 17:17:38;;;;;;;7.37;2.43;;;14.00;99.90;;;;;;4985316;28;20264;-73
2022/08/11 17:20:09;;;;;;;6.60;2.60;;;14.10;99.90;;;;;;4993346;28;20185;-73
2022/08/11 17:25:31;;;;;;;10.97;2.73;;;14.00;99.90;;;;;;4993900;28;20186;-73
2022/08/11 17:28:01;;;;;;;5.00;2.30;;;14.10;99.90;;;;;;4997133;28;20659;-69
2022/08/11 17:36:04;;;;;;;6.23;2.17;;;14.00;99.90;;;;;;4997366;28;20234;-72
2022/08/11 17:38:42;;;;;;;5.07;2.20;;;14.00;99.90;;;;;;4996955;28;20657;-71
2022/08/11 17:49:36;;;;;;;3.30;2.23;;;14.10;99.90;;;;;;4996915;28;20221;-69
2022/08/11 18:00:25;;;;;;;5.93;2.33;;;14.20;99.90;;;;;;4996748;28;20188;-69
2022/08/11 18:05:44;;;;;;;5.10;2.00;;;14.00;99.90;;;;;;4996426;28;20212;-70
